createdAt,value
2022-12-22T00:02:37.267Z,100602.06
2022-12-22T00:05:36.550Z,100600.66
2022-12-22T00:08:22.186Z,100604.25
2022-12-22T00:11:07.906Z,100601.41
2022-12-22T00:13:54.150Z,100602.59
2022-12-22T00:16:48.506Z,100598.66
2022-12-22T00:19:34.115Z,100589.87
2022-12-22T00:22:24.403Z,100599.66
2022-12-22T00:25:10.139Z,100597.13
2022-12-22T00:27:55.740Z,100596.84
2022-12-22T00:30:41.438Z,100598.09
2022-12-22T00:33:30.682Z,100605.84
2022-12-22T00:36:16.267Z,100609.28
2022-12-22T00:39:02.047Z,100610.13
2022-12-22T00:41:47.776Z,100599.69
2022-12-22T00:44:33.297Z,100603.00
2022-12-22T00:47:18.929Z,100602.63
2022-12-22T00:50:07.696Z,100600.09
2022-12-22T00:52:54.345Z,100606.22
2022-12-22T00:55:48.483Z,100591.78
2022-12-22T00:58:37.645Z,100591.22
2022-12-22T01:01:23.445Z,100585.13
2022-12-22T01:04:09.163Z,100579.78
2022-12-22T01:06:55.376Z,100589.25
2022-12-22T01:09:42.034Z,100585.41
2022-12-22T01:12:38.532Z,100580.47
2022-12-22T01:15:37.061Z,100577.31
2022-12-22T01:18:23.407Z,100592.91
2022-12-22T01:21:09.062Z,100589.03
2022-12-22T01:23:55.169Z,100576.28
2022-12-22T01:26:42.358Z,100578.72
2022-12-22T01:29:28.107Z,100577.31
2022-12-22T01:32:13.818Z,100577.47
2022-12-22T01:34:59.783Z,100587.88
2022-12-22T01:37:45.964Z,100582.00
2022-12-22T01:40:41.863Z,100589.16
2022-12-22T01:43:40.116Z,100576.91
2022-12-22T01:46:42.928Z,100571.12
2022-12-22T01:49:33.881Z,100578.69
2022-12-22T01:52:20.486Z,100585.56
2022-12-22T01:55:07.284Z,100581.09
2022-12-22T01:57:54.196Z,100579.34
2022-12-22T02:00:39.885Z,100577.34
2022-12-22T02:03:34.680Z,100589.94
2022-12-22T02:06:32.626Z,100575.44
2022-12-22T02:09:28.186Z,100587.38
2022-12-22T02:12:27.969Z,100574.47
2022-12-22T02:15:32.089Z,100571.28
2022-12-22T02:18:31.015Z,100573.69
2022-12-22T02:21:24.905Z,100569.47
2022-12-22T02:24:17.172Z,100552.16
2022-12-22T02:27:09.093Z,100550.66
2022-12-22T02:29:58.422Z,100551.84
2022-12-22T02:32:45.152Z,100553.78
2022-12-22T02:35:34.346Z,100564.84
2022-12-22T02:38:47.436Z,100554.59
2022-12-22T02:42:06.314Z,100553.38
2022-12-22T02:45:27.366Z,100548.09
2022-12-22T02:48:28.687Z,100552.31
2022-12-22T02:51:24.365Z,100584.66
2022-12-22T02:54:12.546Z,100571.38
2022-12-22T02:57:00.344Z,100559.06
2022-12-22T02:59:45.995Z,100566.53
2022-12-22T03:02:32.824Z,100552.19
2022-12-22T03:05:18.971Z,100555.44
2022-12-22T03:08:08.332Z,100551.28
2022-12-22T03:10:54.551Z,100541.97
2022-12-22T03:13:40.859Z,100529.66
2022-12-22T03:16:26.595Z,100523.00
2022-12-22T03:19:12.565Z,100513.91
2022-12-22T03:21:58.279Z,100521.66
2022-12-22T03:24:44.195Z,100549.94
2022-12-22T03:27:12.205Z,100536.50
2022-12-22T03:29:39.744Z,100514.97
2022-12-22T03:32:08.849Z,100520.94
2022-12-22T03:34:38.368Z,100509.38
2022-12-22T03:37:06.016Z,100513.50
2022-12-22T03:39:33.089Z,100512.59
2022-12-22T03:42:18.942Z,100506.34
2022-12-22T03:45:04.526Z,100498.22
2022-12-22T03:47:32.211Z,100503.34
2022-12-22T03:49:59.095Z,100503.88
2022-12-22T03:52:26.147Z,100498.41
2022-12-22T03:54:53.050Z,100489.16
2022-12-22T03:57:20.056Z,100485.66
2022-12-22T03:59:46.966Z,100484.53
2022-12-22T04:02:14.038Z,100479.41
2022-12-22T04:04:41.034Z,100481.34
2022-12-22T04:07:07.927Z,100490.19
2022-12-22T04:09:34.890Z,100497.50
2022-12-22T04:12:20.324Z,100502.09
2022-12-22T04:14:47.305Z,100498.44
2022-12-22T04:17:14.201Z,100492.66
2022-12-22T04:19:41.483Z,100498.13
2022-12-22T04:22:08.998Z,100492.19
2022-12-22T04:24:35.919Z,100483.06
2022-12-22T04:27:02.814Z,100491.59
2022-12-22T04:29:29.754Z,100489.19
2022-12-22T04:31:56.817Z,100487.03
2022-12-22T04:34:23.946Z,100495.41
2022-12-22T04:36:50.845Z,100496.97
2022-12-22T04:39:17.752Z,100503.84
2022-12-22T04:41:45.394Z,100496.44
2022-12-22T04:44:12.323Z,100484.44
2022-12-22T04:46:39.258Z,100488.37
2022-12-22T04:49:06.144Z,100496.53
2022-12-22T04:51:33.124Z,100497.53
2022-12-22T04:54:00.049Z,100482.22
2022-12-22T04:56:27.084Z,100481.91
2022-12-22T04:58:53.975Z,100476.00
2022-12-22T05:01:21.313Z,100475.19
2022-12-22T05:03:48.529Z,100482.78
2022-12-22T05:06:16.410Z,100489.78
2022-12-22T05:08:43.372Z,100481.91
2022-12-22T05:11:10.658Z,100492.25
2022-12-22T05:13:37.763Z,100485.81
2022-12-22T05:16:10.609Z,100484.28
2022-12-22T05:18:39.422Z,100485.72
2022-12-22T05:21:18.548Z,100485.88
2022-12-22T05:23:46.210Z,100486.22
2022-12-22T05:26:14.862Z,100483.56
2022-12-22T05:28:42.832Z,100483.03
2022-12-22T05:31:14.249Z,100485.59
2022-12-22T05:33:41.164Z,100480.66
2022-12-22T05:36:08.495Z,100476.28
2022-12-22T05:38:35.416Z,100470.94
2022-12-22T05:41:04.635Z,100471.66
2022-12-22T05:43:32.920Z,100477.09
2022-12-22T05:46:08.669Z,100469.19
2022-12-22T05:48:39.169Z,100461.84
2022-12-22T05:51:08.797Z,100471.19
2022-12-22T05:53:35.914Z,100483.19
2022-12-22T05:56:02.902Z,100472.75
2022-12-22T05:58:29.825Z,100477.84
2022-12-22T06:00:58.716Z,100473.97
2022-12-22T06:03:26.813Z,100469.31
2022-12-22T06:05:54.413Z,100465.88
2022-12-22T06:08:21.573Z,100466.94
2022-12-22T06:10:50.631Z,100471.81
2022-12-22T06:13:17.665Z,100481.25
2022-12-22T06:15:44.621Z,100482.25
2022-12-22T06:18:11.974Z,100482.69
2022-12-22T06:20:38.846Z,100488.66
2022-12-22T06:23:05.745Z,100488.37
2022-12-22T06:25:33.213Z,100496.34
2022-12-22T06:28:02.882Z,100505.13
2022-12-22T06:30:33.633Z,100508.81
2022-12-22T06:33:01.797Z,100504.66
2022-12-22T06:35:29.038Z,100514.19
2022-12-22T06:37:56.225Z,100518.47
2022-12-22T06:40:23.463Z,100516.91
2022-12-22T06:43:09.873Z,100508.47
2022-12-22T06:45:40.265Z,100511.78
2022-12-22T06:48:08.410Z,100504.06
2022-12-22T06:50:35.432Z,100508.72
2022-12-22T06:53:03.164Z,100501.75
2022-12-22T06:55:30.084Z,100501.22
2022-12-22T06:57:57.078Z,100499.16
2022-12-22T07:00:24.093Z,100492.16
2022-12-22T07:02:51.169Z,100488.37
2022-12-22T07:05:18.267Z,100495.00
2022-12-22T07:07:45.504Z,100492.88
2022-12-22T07:10:12.792Z,100497.16
2022-12-22T07:12:39.774Z,100496.88
2022-12-22T07:15:07.327Z,100502.81
2022-12-22T07:17:34.395Z,100500.34
2022-12-22T07:20:01.459Z,100499.84
2022-12-22T07:22:30.753Z,100496.69
2022-12-22T07:24:59.299Z,100498.22
2022-12-22T07:27:26.338Z,100496.59
2022-12-22T07:29:53.255Z,100503.75
2022-12-22T07:32:20.139Z,100492.06
2022-12-22T07:34:47.090Z,100490.41
2022-12-22T07:37:14.204Z,100487.25
2022-12-22T07:39:41.347Z,100483.97
2022-12-22T07:42:29.575Z,100486.97
2022-12-22T07:44:56.547Z,100487.50
2022-12-22T07:47:23.740Z,100477.34
2022-12-22T07:50:10.198Z,100478.28
2022-12-22T07:52:37.312Z,100486.66
2022-12-22T07:55:04.434Z,100466.72
2022-12-22T07:57:31.552Z,100471.25
2022-12-22T07:59:58.553Z,100473.66
2022-12-22T08:02:25.761Z,100465.31
2022-12-22T08:04:52.765Z,100473.03
2022-12-22T08:07:19.744Z,100477.34
2022-12-22T08:09:46.724Z,100467.13
2022-12-22T08:12:15.388Z,100465.75
2022-12-22T08:14:46.202Z,100469.69
2022-12-22T08:17:13.503Z,100476.88
2022-12-22T08:19:41.124Z,100463.94
2022-12-22T08:22:08.146Z,100463.22
2022-12-22T08:24:35.089Z,100457.78
2022-12-22T08:27:06.313Z,100469.16
2022-12-22T08:29:38.866Z,100472.94
2022-12-22T08:32:05.929Z,100473.00
2022-12-22T08:34:33.134Z,100475.81
2022-12-22T08:37:02.245Z,100473.53
2022-12-22T08:39:33.043Z,100478.19
2022-12-22T08:42:00.735Z,100475.00
2022-12-22T08:44:31.572Z,100475.66
2022-12-22T08:47:00.334Z,100469.72
2022-12-22T08:49:27.743Z,100469.72
2022-12-22T08:51:54.996Z,100473.78
2022-12-22T08:54:22.288Z,100476.88
2022-12-22T08:56:49.829Z,100476.25
2022-12-22T08:59:17.549Z,100474.25
2022-12-22T09:01:50.886Z,100469.00
2022-12-22T09:04:21.283Z,100462.34
2022-12-22T09:06:49.157Z,100453.72
2022-12-22T09:09:16.782Z,100448.22
2022-12-22T09:11:44.016Z,100452.53
2022-12-22T09:14:12.649Z,100449.81
2022-12-22T09:16:39.993Z,100453.13
2022-12-22T09:19:07.255Z,100451.28
2022-12-22T09:21:35.128Z,100438.91
2022-12-22T09:24:03.556Z,100441.16
2022-12-22T09:26:30.702Z,100429.38
2022-12-22T09:28:58.194Z,100428.09
2022-12-22T09:31:26.336Z,100429.19
2022-12-22T09:33:53.680Z,100421.91
2022-12-22T09:36:24.093Z,100424.47
2022-12-22T09:38:53.635Z,100409.63
2022-12-22T09:41:45.924Z,100401.88
2022-12-22T09:44:38.479Z,100396.59
2022-12-22T09:47:36.343Z,100386.13
2022-12-22T09:50:05.444Z,100391.38
2022-12-22T09:52:35.558Z,100381.94
2022-12-22T09:55:04.834Z,100387.00
2022-12-22T09:57:33.043Z,100386.28
2022-12-22T10:00:28.593Z,100394.47
2022-12-22T10:03:04.216Z,100382.69
2022-12-22T10:05:40.324Z,100384.69
2022-12-22T10:08:16.973Z,100382.38
2022-12-22T10:10:43.946Z,100373.78
2022-12-22T10:13:19.998Z,100372.31
2022-12-22T10:15:47.238Z,100387.62
2022-12-22T10:18:21.863Z,100382.84
2022-12-22T10:21:13.932Z,100388.34
2022-12-22T10:23:46.545Z,100374.16
2022-12-22T10:26:34.084Z,100363.72
2022-12-22T10:29:09.381Z,100357.41
2022-12-22T10:31:55.021Z,100350.13
2022-12-22T10:34:22.184Z,100345.37
2022-12-22T10:36:51.802Z,100347.22
2022-12-22T10:39:28.339Z,100351.31
2022-12-22T10:42:01.298Z,100345.87
2022-12-22T10:44:37.365Z,100327.47
2022-12-22T10:47:19.745Z,100325.47
2022-12-22T10:49:50.053Z,100322.09
2022-12-22T10:52:32.326Z,100320.81
2022-12-22T10:55:33.070Z,100330.75
2022-12-22T10:58:21.813Z,100325.44
2022-12-22T11:01:03.096Z,100330.09
2022-12-22T11:03:32.028Z,100312.63
2022-12-22T11:06:01.103Z,100308.16
2022-12-22T11:08:30.491Z,100306.53
2022-12-22T11:11:05.631Z,100305.91
2022-12-22T11:13:44.638Z,100309.19
2022-12-22T11:16:38.402Z,100306.88
2022-12-22T11:19:56.158Z,100311.44
2022-12-22T11:22:46.163Z,100307.28
2022-12-22T11:25:19.588Z,100298.09
2022-12-22T11:28:11.143Z,100302.31
2022-12-22T11:31:06.509Z,100299.19
2022-12-22T11:33:52.345Z,100300.97
2022-12-22T11:36:30.505Z,100289.06
2022-12-22T11:39:15.103Z,100292.47
2022-12-22T11:41:46.539Z,100282.19
2022-12-22T11:44:41.344Z,100277.78
2022-12-22T11:47:14.524Z,100270.87
2022-12-22T11:50:25.451Z,100269.06
2022-12-22T11:53:06.031Z,100265.53
2022-12-22T11:55:36.077Z,100268.16
2022-12-22T11:58:14.879Z,100259.41
2022-12-22T12:01:25.595Z,100255.84
2022-12-22T12:04:14.718Z,100252.41
2022-12-22T12:06:55.074Z,100250.56
2022-12-22T12:09:59.199Z,100250.72
2022-12-22T12:13:00.921Z,100252.41
2022-12-22T12:15:32.833Z,100257.59
2022-12-22T12:18:12.733Z,100258.25
2022-12-22T12:20:46.618Z,100261.75
2022-12-22T12:23:50.690Z,100248.78
2022-12-22T12:26:57.083Z,100257.94
2022-12-22T12:29:41.236Z,100242.56
2022-12-22T12:32:45.343Z,100253.09
2022-12-22T12:35:35.967Z,100263.22
2022-12-22T12:38:47.928Z,100252.66
2022-12-22T12:41:08.177Z,100260.34
2022-12-22T12:43:36.294Z,100251.56
2022-12-22T12:46:42.179Z,100248.50
2022-12-22T12:49:50.843Z,100248.56
2022-12-22T12:52:17.765Z,100245.47
2022-12-22T12:54:49.493Z,100252.50
2022-12-22T12:57:30.926Z,100257.25
2022-12-22T12:59:59.851Z,100250.59
2022-12-22T13:02:38.297Z,100259.84
2022-12-22T13:05:14.823Z,100257.81
2022-12-22T13:08:14.679Z,100257.25
2022-12-22T13:10:43.182Z,100238.75
2022-12-22T13:13:13.835Z,100231.75
2022-12-22T13:15:42.976Z,100246.53
2022-12-22T13:18:15.947Z,100242.06
2022-12-22T13:20:43.153Z,100232.59
2022-12-22T13:23:15.321Z,100235.09
2022-12-22T13:25:48.211Z,100245.69
2022-12-22T13:28:17.587Z,100243.87
2022-12-22T13:30:50.715Z,100226.81
2022-12-22T13:33:21.268Z,100226.22
2022-12-22T13:35:56.545Z,100240.72
2022-12-22T13:38:38.013Z,100258.41
2022-12-22T13:41:26.623Z,100261.84
2022-12-22T13:44:07.015Z,100258.13
2022-12-22T13:46:37.965Z,100263.44
2022-12-22T13:49:10.356Z,100261.09
2022-12-22T13:51:38.774Z,100266.22
2022-12-22T13:54:17.558Z,100265.62
2022-12-22T13:56:48.167Z,100256.81
2022-12-22T13:59:33.520Z,100265.84
2022-12-22T14:02:18.104Z,100252.44
2022-12-22T14:05:23.805Z,100259.38
2022-12-22T14:07:59.895Z,100264.69
2022-12-22T14:10:34.243Z,100256.59
2022-12-22T14:13:05.804Z,100254.09
2022-12-22T14:15:33.211Z,100253.00
2022-12-22T14:18:00.503Z,100250.59
2022-12-22T14:20:40.390Z,100257.41
2022-12-22T14:23:22.217Z,100261.00
2022-12-22T14:25:50.709Z,100271.56
2022-12-22T14:28:36.340Z,100268.16
2022-12-22T14:31:05.938Z,100270.44
2022-12-22T14:33:35.027Z,100280.16
2022-12-22T14:36:06.750Z,100282.72
2022-12-22T14:38:48.367Z,100286.59
2022-12-22T14:41:38.134Z,100289.00
2022-12-22T14:44:05.697Z,100293.06
2022-12-22T14:46:38.619Z,100291.22
2022-12-22T14:49:06.387Z,100286.09
2022-12-22T14:51:33.337Z,100279.50
2022-12-22T14:54:03.151Z,100282.62
2022-12-22T14:56:29.944Z,100269.59
2022-12-22T14:59:23.917Z,100275.97
2022-12-22T15:02:21.156Z,100284.75
2022-12-22T15:04:48.441Z,100285.81
2022-12-22T15:07:54.445Z,100281.19
2022-12-22T15:10:20.699Z,100283.88
2022-12-22T15:12:49.104Z,100280.63
2022-12-22T15:15:21.695Z,100278.31
2022-12-22T15:17:52.286Z,100275.72
2022-12-22T15:20:22.744Z,100274.00
2022-12-22T15:22:50.238Z,100274.06
2022-12-22T15:25:25.221Z,100275.72
2022-12-22T15:27:52.638Z,100267.16
2022-12-22T15:30:28.935Z,100262.38
2022-12-22T15:32:57.163Z,100272.34
2022-12-22T15:35:33.151Z,100267.16
2022-12-22T15:38:00.690Z,100275.81
2022-12-22T15:40:28.927Z,100282.72
2022-12-22T15:42:55.865Z,100273.91
2022-12-22T15:45:23.193Z,100279.03
2022-12-22T15:47:53.843Z,100281.06
2022-12-22T15:50:38.666Z,100285.88
2022-12-22T15:53:12.827Z,100286.81
2022-12-22T15:55:43.177Z,100292.19
2022-12-22T15:58:13.804Z,100295.59
2022-12-22T16:00:40.779Z,100290.25
2022-12-22T16:03:08.116Z,100285.97
2022-12-22T16:05:35.185Z,100297.06
2022-12-22T16:08:03.045Z,100278.53
2022-12-22T16:10:34.307Z,100290.72
2022-12-22T16:13:04.368Z,100298.47
2022-12-22T16:15:33.952Z,100305.41
2022-12-22T16:18:02.557Z,100314.41
2022-12-22T16:20:37.784Z,100309.19
2022-12-22T16:23:08.042Z,100308.94
2022-12-22T16:25:39.209Z,100312.81
2022-12-22T16:28:07.271Z,100315.31
2022-12-22T16:30:34.829Z,100313.00
2022-12-22T16:33:02.005Z,100317.47
2022-12-22T16:35:33.575Z,100329.47
2022-12-22T16:38:00.829Z,100324.56
2022-12-22T16:40:28.575Z,100332.41
2022-12-22T16:46:05.975Z,100322.84
2022-12-22T16:48:42.707Z,100332.75
2022-12-22T16:51:17.163Z,100315.53
2022-12-22T16:53:44.209Z,100328.03
2022-12-22T16:56:20.522Z,100327.53
2022-12-22T16:58:48.428Z,100326.59
2022-12-22T17:01:34.841Z,100325.66
2022-12-22T17:04:09.935Z,100319.13
2022-12-22T17:06:37.589Z,100318.81
2022-12-22T17:09:07.667Z,100320.19
2022-12-22T17:11:34.772Z,100318.41
2022-12-22T17:14:40.534Z,100316.38
2022-12-22T17:17:17.764Z,100319.88
2022-12-22T17:19:45.251Z,100330.25
2022-12-22T17:22:33.811Z,100330.97
2022-12-22T17:25:04.726Z,100317.69
2022-12-22T17:27:33.934Z,100318.75
2022-12-22T17:30:05.909Z,100319.69
2022-12-22T17:32:32.933Z,100324.28
2022-12-22T17:34:59.875Z,100322.69
2022-12-22T17:37:26.912Z,100328.00
2022-12-22T17:40:00.430Z,100320.31
2022-12-22T17:42:27.471Z,100320.44
2022-12-22T17:44:54.412Z,100318.56
2022-12-22T17:47:29.031Z,100323.81
2022-12-22T17:50:00.987Z,100326.38
2022-12-22T17:52:28.557Z,100323.00
2022-12-22T17:54:58.080Z,100329.16
2022-12-22T17:57:32.951Z,100329.22
2022-12-22T18:00:00.789Z,100337.94
2022-12-22T18:02:28.182Z,100335.34
2022-12-22T18:04:55.304Z,100338.84
2022-12-22T18:07:24.989Z,100346.72
2022-12-22T18:09:59.281Z,100346.72
2022-12-22T18:12:26.891Z,100346.78
2022-12-22T18:14:54.585Z,100345.06
2022-12-22T18:17:35.577Z,100344.16
2022-12-22T18:20:03.130Z,100349.41
2022-12-22T18:22:30.957Z,100352.91
2022-12-22T18:24:58.096Z,100353.78
2022-12-22T18:27:25.146Z,100347.69
2022-12-22T18:29:52.195Z,100350.31
2022-12-22T18:32:27.019Z,100351.19
2022-12-22T18:34:56.828Z,100347.69
2022-12-22T18:37:23.794Z,100341.59
2022-12-22T18:39:50.786Z,100346.81
2022-12-22T18:42:23.443Z,100344.19
2022-12-22T18:44:51.600Z,100346.81
2022-12-22T18:47:18.900Z,100346.81
2022-12-22T18:49:46.176Z,100354.66
2022-12-22T18:52:19.551Z,100337.00
2022-12-22T18:54:47.491Z,100328.00
2022-12-22T18:57:16.768Z,100329.69
2022-12-22T18:59:44.368Z,100314.28
2022-12-22T19:02:26.548Z,100314.75
2022-12-22T19:04:54.669Z,100315.13
2022-12-22T19:07:24.564Z,100309.38
2022-12-22T19:09:51.826Z,100304.00
2022-12-22T19:12:25.467Z,100298.09
2022-12-22T19:14:57.553Z,100307.94
2022-12-22T19:17:29.083Z,100304.72
2022-12-22T19:19:57.077Z,100304.97
2022-12-22T19:22:24.320Z,100308.06
2022-12-22T19:24:51.818Z,100294.16
2022-12-22T19:27:27.019Z,100290.69
2022-12-22T19:30:03.030Z,100292.72
2022-12-22T19:32:36.111Z,100286.00
2022-12-22T19:35:03.221Z,100273.06
2022-12-22T19:37:30.182Z,100281.81
2022-12-22T19:39:57.085Z,100273.22
2022-12-22T19:42:25.563Z,100268.88
2022-12-22T19:44:52.521Z,100269.31
2022-12-22T19:47:22.159Z,100279.72
2022-12-22T19:49:49.144Z,100268.81
2022-12-22T19:52:16.065Z,100248.69
2022-12-22T19:54:42.995Z,100255.03
2022-12-22T19:57:18.431Z,100257.87
2022-12-22T19:59:48.975Z,100253.84
2022-12-22T20:02:28.310Z,100244.97
2022-12-22T20:04:56.315Z,100223.78
2022-12-22T20:07:26.164Z,100215.09
2022-12-22T20:09:52.975Z,100229.44
2022-12-22T20:12:22.997Z,100225.38
2022-12-22T20:14:49.999Z,100226.38
2022-12-22T20:17:16.990Z,100237.44
2022-12-22T20:19:43.969Z,100245.41
2022-12-22T20:22:16.393Z,100243.09
2022-12-22T20:24:45.362Z,100237.09
2022-12-22T20:27:23.392Z,100232.75
2022-12-22T20:29:50.429Z,100230.66
2022-12-22T20:32:22.299Z,100234.94
2022-12-22T20:34:55.680Z,100242.25
2022-12-22T20:37:22.698Z,100234.91
2022-12-22T20:39:49.673Z,100243.69
2022-12-22T20:42:22.675Z,100243.31
2022-12-22T20:45:01.559Z,100250.75
2022-12-22T20:47:28.873Z,100255.03
2022-12-22T20:49:55.725Z,100248.34
2022-12-22T20:52:22.586Z,100248.56
2022-12-22T20:54:49.600Z,100252.12
2022-12-22T20:57:17.212Z,100245.19
2022-12-22T20:59:44.655Z,100243.50
2022-12-22T21:02:37.680Z,100240.06
2022-12-22T21:05:05.104Z,100247.06
2022-12-22T21:07:32.251Z,100247.91
2022-12-22T21:09:59.377Z,100253.19
2022-12-22T21:12:26.235Z,100261.09
2022-12-22T21:14:53.101Z,100256.75
2022-12-22T21:17:20.125Z,100258.53
2022-12-22T21:19:47.334Z,100263.72
2022-12-22T21:22:14.396Z,100268.97
2022-12-22T21:24:42.034Z,100276.78
2022-12-22T21:27:16.110Z,100272.44
2022-12-22T21:29:50.457Z,100281.13
2022-12-22T21:32:19.100Z,100283.72
2022-12-22T21:34:45.952Z,100285.81
2022-12-22T21:37:19.129Z,100290.50
2022-12-22T21:39:46.025Z,100280.09
2022-12-22T21:42:16.719Z,100272.19
2022-12-22T21:44:45.021Z,100277.63
2022-12-22T21:47:19.845Z,100288.72
2022-12-22T21:49:46.862Z,100292.22
2022-12-22T21:52:13.706Z,100278.31
2022-12-22T21:54:40.583Z,100272.97
2022-12-22T21:57:11.399Z,100277.94
2022-12-22T21:59:38.236Z,100275.78
2022-12-22T22:02:14.021Z,100282.16
2022-12-22T22:04:40.925Z,100263.00
2022-12-22T22:07:07.970Z,100260.91
2022-12-22T22:09:34.927Z,100263.28
2022-12-22T22:12:26.412Z,100277.16
2022-12-22T22:14:55.028Z,100273.34
2022-12-22T22:17:21.849Z,100266.75
2022-12-22T22:19:48.704Z,100261.00
2022-12-22T22:22:15.685Z,100263.66
2022-12-22T22:24:42.506Z,100257.66
2022-12-22T22:27:09.328Z,100252.72
2022-12-22T22:29:36.268Z,100269.38
2022-12-22T22:32:03.212Z,100281.97
2022-12-22T22:34:30.145Z,100278.34
2022-12-22T22:36:57.070Z,100277.03
2022-12-22T22:39:24.267Z,100281.50
2022-12-22T22:41:51.138Z,100265.62
2022-12-22T22:44:18.129Z,100258.72
2022-12-22T22:46:45.037Z,100271.63
2022-12-22T22:49:11.992Z,100265.81
2022-12-22T22:51:38.979Z,100264.09
2022-12-22T22:54:05.852Z,100259.94
2022-12-22T22:56:32.867Z,100257.87
2022-12-22T22:59:00.136Z,100249.12
2022-12-22T23:01:29.197Z,100245.97
2022-12-22T23:03:56.194Z,100246.09
2022-12-22T23:06:23.428Z,100237.34
2022-12-22T23:08:50.931Z,100240.03
2022-12-22T23:11:17.814Z,100235.75
2022-12-22T23:13:45.596Z,100224.47
2022-12-22T23:16:12.562Z,100231.38
2022-12-22T23:18:41.291Z,100233.97
2022-12-22T23:21:09.726Z,100236.59
2022-12-22T23:23:36.891Z,100223.56
2022-12-22T23:26:03.947Z,100218.31
2022-12-22T23:28:32.356Z,100214.88
2022-12-22T23:30:59.375Z,100221.84
2022-12-22T23:33:26.305Z,100210.53
2022-12-22T23:35:53.676Z,100210.56
2022-12-22T23:38:21.213Z,100200.94
2022-12-22T23:40:53.665Z,100207.94
2022-12-22T23:43:21.907Z,100204.41
2022-12-22T23:45:49.053Z,100204.41
2022-12-22T23:48:15.966Z,100212.03
2022-12-22T23:50:46.629Z,100209.53
2022-12-22T23:53:14.099Z,100205.25
2022-12-22T23:55:45.061Z,100203.59
2022-12-22T23:58:12.075Z,100199.16
